sensor_id;sensor_type;location;lat;lon;timestamp;temperature;humidity
19256;DHT22;9762;52.490;13.410;2023-07-16T00:00:50;27.50;81.70
19256;DHT22;9762;52.490;13.410;2023-07-16T00:03:16;27.40;81.60
19256;DHT22;9762;52.490;13.410;2023-07-16T00:05:41;27.40;81.90
19256;DHT22;9762;52.490;13.410;2023-07-16T00:08:07;27.40;82.00
19256;DHT22;9762;52.490;13.410;2023-07-16T00:10:35;27.40;81.90
19256;DHT22;9762;52.490;13.410;2023-07-16T00:13:02;27.40;82.00
19256;DHT22;9762;52.490;13.410;2023-07-16T00:15:28;27.40;81.70
19256;DHT22;9762;52.490;13.410;2023-07-16T00:17:54;27.40;81.40
19256;DHT22;9762;52.490;13.410;2023-07-16T00:20:20;27.30;82.10
19256;DHT22;9762;52.490;13.410;2023-07-16T00:22:46;27.30;81.90
19256;DHT22;9762;52.490;13.410;2023-07-16T00:25:12;27.30;81.50
19256;DHT22;9762;52.490;13.410;2023-07-16T00:27:37;27.30;81.70
19256;DHT22;9762;52.490;13.410;2023-07-16T00:30:03;27.30;81.50
19256;DHT22;9762;52.490;13.410;2023-07-16T00:32:29;27.20;81.70
19256;DHT22;9762;52.490;13.410;2023-07-16T00:34:55;27.20;82.40
19256;DHT22;9762;52.490;13.410;2023-07-16T00:37:20;27.20;82.00
19256;DHT22;9762;52.490;13.410;2023-07-16T00:39:46;27.20;82.80
19256;DHT22;9762;52.490;13.410;2023-07-16T00:42:12;27.20;82.30
19256;DHT22;9762;52.490;13.410;2023-07-16T00:44:37;27.20;82.90
19256;DHT22;9762;52.490;13.410;2023-07-16T00:47:03;27.10;83.80
19256;DHT22;9762;52.490;13.410;2023-07-16T00:49:29;27.10;83.70
19256;DHT22;9762;52.490;13.410;2023-07-16T00:51:55;27.10;84.20
19256;DHT22;9762;52.490;13.410;2023-07-16T00:54:21;27.00;84.70
19256;DHT22;9762;52.490;13.410;2023-07-16T00:56:48;27.00;85.00
19256;DHT22;9762;52.490;13.410;2023-07-16T00:59:13;27.00;84.80
19256;DHT22;9762;52.490;13.410;2023-07-16T01:01:39;26.90;86.40
19256;DHT22;9762;52.490;13.410;2023-07-16T01:04:05;26.80;85.70
19256;DHT22;9762;52.490;13.410;2023-07-16T01:06:36;26.80;85.50
19256;DHT22;9762;52.490;13.410;2023-07-16T01:09:07;26.80;86.00
19256;DHT22;9762;52.490;13.410;2023-07-16T01:11:34;26.70;86.70
19256;DHT22;9762;52.490;13.410;2023-07-16T01:14:02;26.60;87.70
19256;DHT22;9762;52.490;13.410;2023-07-16T01:16:27;26.50;88.70
19256;DHT22;9762;52.490;13.410;2023-07-16T01:18:53;26.50;88.60
19256;DHT22;9762;52.490;13.410;2023-07-16T01:21:20;26.40;88.70
19256;DHT22;9762;52.490;13.410;2023-07-16T01:29:36;26.10;89.80
19256;DHT22;9762;52.490;13.410;2023-07-16T01:32:03;26.00;90.10
19256;DHT22;9762;52.490;13.410;2023-07-16T01:34:32;26.00;90.40
19256;DHT22;9762;52.490;13.410;2023-07-16T01:37:00;25.90;90.30
19256;DHT22;9762;52.490;13.410;2023-07-16T01:39:26;25.90;90.40
19256;DHT22;9762;52.490;13.410;2023-07-16T01:41:52;25.80;90.70
19256;DHT22;9762;52.490;13.410;2023-07-16T01:44:18;25.80;90.70
19256;DHT22;9762;52.490;13.410;2023-07-16T01:46:43;25.80;90.70
19256;DHT22;9762;52.490;13.410;2023-07-16T01:49:09;25.80;90.90
19256;DHT22;9762;52.490;13.410;2023-07-16T01:51:35;25.70;90.80
19256;DHT22;9762;52.490;13.410;2023-07-16T01:54:00;25.70;90.80
19256;DHT22;9762;52.490;13.410;2023-07-16T01:56:26;25.70;90.80
19256;DHT22;9762;52.490;13.410;2023-07-16T01:58:51;25.60;90.80
19256;DHT22;9762;52.490;13.410;2023-07-16T02:01:17;25.60;91.00
19256;DHT22;9762;52.490;13.410;2023-07-16T02:03:43;25.50;90.40
19256;DHT22;9762;52.490;13.410;2023-07-16T02:06:08;25.50;90.40
19256;DHT22;9762;52.490;13.410;2023-07-16T02:08:34;25.40;90.50
19256;DHT22;9762;52.490;13.410;2023-07-16T02:11:00;25.40;90.50
19256;DHT22;9762;52.490;13.410;2023-07-16T02:13:27;25.40;90.50
19256;DHT22;9762;52.490;13.410;2023-07-16T02:15:52;25.40;90.40
19256;DHT22;9762;52.490;13.410;2023-07-16T02:18:18;25.40;90.20
19256;DHT22;9762;52.490;13.410;2023-07-16T02:20:43;25.40;90.30
19256;DHT22;9762;52.490;13.410;2023-07-16T02:23:09;25.30;90.90
19256;DHT22;9762;52.490;13.410;2023-07-16T02:25:35;25.30;91.40
19256;DHT22;9762;52.490;13.410;2023-07-16T02:28:00;25.30;91.60
19256;DHT22;9762;52.490;13.410;2023-07-16T02:30:27;25.20;92.10
19256;DHT22;9762;52.490;13.410;2023-07-16T02:32:52;25.20;92.30
19256;DHT22;9762;52.490;13.410;2023-07-16T02:35:18;25.20;92.50
19256;DHT22;9762;52.490;13.410;2023-07-16T02:37:44;25.20;92.60
19256;DHT22;9762;52.490;13.410;2023-07-16T02:40:09;25.10;93.20
19256;DHT22;9762;52.490;13.410;2023-07-16T02:42:35;25.10;93.10
19256;DHT22;9762;52.490;13.410;2023-07-16T02:45:01;25.10;93.10
19256;DHT22;9762;52.490;13.410;2023-07-16T02:47:26;25.20;93.00
19256;DHT22;9762;52.490;13.410;2023-07-16T02:49:52;25.20;93.10
19256;DHT22;9762;52.490;13.410;2023-07-16T02:52:18;25.20;93.20
19256;DHT22;9762;52.490;13.410;2023-07-16T02:54:44;25.30;93.10
19256;DHT22;9762;52.490;13.410;2023-07-16T02:57:09;25.30;93.10
19256;DHT22;9762;52.490;13.410;2023-07-16T02:59:35;25.30;93.10
19256;DHT22;9762;52.490;13.410;2023-07-16T03:02:01;25.30;93.40
19256;DHT22;9762;52.490;13.410;2023-07-16T03:04:26;25.30;93.30
19256;DHT22;9762;52.490;13.410;2023-07-16T03:06:52;25.30;93.40
19256;DHT22;9762;52.490;13.410;2023-07-16T03:09:18;25.30;93.80
19256;DHT22;9762;52.490;13.410;2023-07-16T03:11:43;25.30;93.50
19256;DHT22;9762;52.490;13.410;2023-07-16T03:14:09;25.30;93.70
19256;DHT22;9762;52.490;13.410;2023-07-16T03:16:34;25.30;93.70
19256;DHT22;9762;52.490;13.410;2023-07-16T03:19:00;25.30;93.60
19256;DHT22;9762;52.490;13.410;2023-07-16T03:21:25;25.40;93.60
19256;DHT22;9762;52.490;13.410;2023-07-16T03:23:51;25.40;93.90
19256;DHT22;9762;52.490;13.410;2023-07-16T03:26:17;25.30;93.90
19256;DHT22;9762;52.490;13.410;2023-07-16T03:28:42;25.30;93.50
19256;DHT22;9762;52.490;13.410;2023-07-16T03:31:08;25.30;93.70
19256;DHT22;9762;52.490;13.410;2023-07-16T03:33:33;25.30;93.50
19256;DHT22;9762;52.490;13.410;2023-07-16T03:35:59;25.30;94.00
19256;DHT22;9762;52.490;13.410;2023-07-16T03:38:24;25.30;94.30
19256;DHT22;9762;52.490;13.410;2023-07-16T03:40:50;25.20;94.40
19256;DHT22;9762;52.490;13.410;2023-07-16T03:43:16;25.20;94.50
19256;DHT22;9762;52.490;13.410;2023-07-16T03:45:43;25.20;94.40
19256;DHT22;9762;52.490;13.410;2023-07-16T03:48:09;25.20;94.20
19256;DHT22;9762;52.490;13.410;2023-07-16T03:50:35;25.10;94.40
19256;DHT22;9762;52.490;13.410;2023-07-16T03:53:02;25.10;94.50
19256;DHT22;9762;52.490;13.410;2023-07-16T03:55:28;25.10;94.30
19256;DHT22;9762;52.490;13.410;2023-07-16T03:57:54;25.10;94.30
19256;DHT22;9762;52.490;13.410;2023-07-16T04:00:20;25.00;94.40
19256;DHT22;9762;52.490;13.410;2023-07-16T04:02:46;25.00;94.20
19256;DHT22;9762;52.490;13.410;2023-07-16T04:05:11;25.10;94.30
19256;DHT22;9762;52.490;13.410;2023-07-16T04:07:37;25.00;94.60
19256;DHT22;9762;52.490;13.410;2023-07-16T04:10:03;25.00;94.70
19256;DHT22;9762;52.490;13.410;2023-07-16T04:12:29;25.00;94.50
19256;DHT22;9762;52.490;13.410;2023-07-16T04:14:57;25.00;94.70
19256;DHT22;9762;52.490;13.410;2023-07-16T04:17:23;25.00;94.90
19256;DHT22;9762;52.490;13.410;2023-07-16T04:19:49;25.00;94.90
19256;DHT22;9762;52.490;13.410;2023-07-16T04:22:14;25.00;94.80
19256;DHT22;9762;52.490;13.410;2023-07-16T04:24:40;25.10;94.90
19256;DHT22;9762;52.490;13.410;2023-07-16T04:27:05;25.10;95.00
19256;DHT22;9762;52.490;13.410;2023-07-16T04:29:31;25.20;95.00
19256;DHT22;9762;52.490;13.410;2023-07-16T04:31:57;25.10;94.70
19256;DHT22;9762;52.490;13.410;2023-07-16T04:34:22;25.30;94.70
19256;DHT22;9762;52.490;13.410;2023-07-16T04:36:48;25.30;94.40
19256;DHT22;9762;52.490;13.410;2023-07-16T04:39:13;25.40;94.30
19256;DHT22;9762;52.490;13.410;2023-07-16T04:41:39;25.40;94.00
19256;DHT22;9762;52.490;13.410;2023-07-16T04:44:05;25.40;94.20
19256;DHT22;9762;52.490;13.410;2023-07-16T04:46:31;25.40;94.00
19256;DHT22;9762;52.490;13.410;2023-07-16T04:48:56;25.50;94.00
19256;DHT22;9762;52.490;13.410;2023-07-16T04:51:22;25.50;94.20
19256;DHT22;9762;52.490;13.410;2023-07-16T04:53:48;25.50;94.10
19256;DHT22;9762;52.490;13.410;2023-07-16T04:56:15;25.50;93.80
19256;DHT22;9762;52.490;13.410;2023-07-16T04:58:42;25.50;94.00
19256;DHT22;9762;52.490;13.410;2023-07-16T05:01:08;25.50;94.00
19256;DHT22;9762;52.490;13.410;2023-07-16T05:03:34;25.50;93.90
19256;DHT22;9762;52.490;13.410;2023-07-16T05:06:00;25.50;93.70
19256;DHT22;9762;52.490;13.410;2023-07-16T05:08:26;25.50;93.80
19256;DHT22;9762;52.490;13.410;2023-07-16T05:10:51;25.50;94.00
19256;DHT22;9762;52.490;13.410;2023-07-16T05:13:17;25.50;93.90
19256;DHT22;9762;52.490;13.410;2023-07-16T05:15:46;25.40;94.00
19256;DHT22;9762;52.490;13.410;2023-07-16T05:18:12;25.40;94.30
19256;DHT22;9762;52.490;13.410;2023-07-16T05:20:38;25.40;94.60
19256;DHT22;9762;52.490;13.410;2023-07-16T05:23:04;25.30;94.60
19256;DHT22;9762;52.490;13.410;2023-07-16T05:25:29;25.30;94.50
19256;DHT22;9762;52.490;13.410;2023-07-16T05:27:55;25.30;94.60
19256;DHT22;9762;52.490;13.410;2023-07-16T05:30:21;25.20;94.70
19256;DHT22;9762;52.490;13.410;2023-07-16T05:32:47;25.20;94.70
19256;DHT22;9762;52.490;13.410;2023-07-16T05:35:13;25.20;95.10
19256;DHT22;9762;52.490;13.410;2023-07-16T05:37:38;25.10;95.20
19256;DHT22;9762;52.490;13.410;2023-07-16T05:40:05;25.20;95.10
19256;DHT22;9762;52.490;13.410;2023-07-16T05:42:31;25.20;94.90
19256;DHT22;9762;52.490;13.410;2023-07-16T05:44:56;25.20;94.70
19256;DHT22;9762;52.490;13.410;2023-07-16T05:47:22;25.20;94.60
19256;DHT22;9762;52.490;13.410;2023-07-16T05:49:48;25.30;94.50
19256;DHT22;9762;52.490;13.410;2023-07-16T05:52:13;25.20;94.50
19256;DHT22;9762;52.490;13.410;2023-07-16T05:54:39;25.30;94.50
19256;DHT22;9762;52.490;13.410;2023-07-16T05:57:05;25.20;94.70
19256;DHT22;9762;52.490;13.410;2023-07-16T05:59:31;25.20;94.70
19256;DHT22;9762;52.490;13.410;2023-07-16T06:02:01;25.20;94.60
19256;DHT22;9762;52.490;13.410;2023-07-16T06:04:27;25.20;94.80
19256;DHT22;9762;52.490;13.410;2023-07-16T06:06:53;25.20;94.90
19256;DHT22;9762;52.490;13.410;2023-07-16T06:09:18;25.20;94.80
19256;DHT22;9762;52.490;13.410;2023-07-16T06:11:46;25.30;94.90
19256;DHT22;9762;52.490;13.410;2023-07-16T06:14:12;25.30;95.20
19256;DHT22;9762;52.490;13.410;2023-07-16T06:16:38;25.30;95.00
19256;DHT22;9762;52.490;13.410;2023-07-16T06:19:04;25.30;95.00
19256;DHT22;9762;52.490;13.410;2023-07-16T06:21:29;25.30;95.40
19256;DHT22;9762;52.490;13.410;2023-07-16T06:23:55;25.30;95.30
19256;DHT22;9762;52.490;13.410;2023-07-16T06:26:20;25.40;95.30
19256;DHT22;9762;52.490;13.410;2023-07-16T06:28:46;25.40;95.10
19256;DHT22;9762;52.490;13.410;2023-07-16T06:31:15;25.40;95.10
19256;DHT22;9762;52.490;13.410;2023-07-16T06:33:40;25.50;94.70
19256;DHT22;9762;52.490;13.410;2023-07-16T06:36:06;25.50;94.60
19256;DHT22;9762;52.490;13.410;2023-07-16T06:38:32;25.40;94.50
19256;DHT22;9762;52.490;13.410;2023-07-16T06:40:57;25.50;94.60
19256;DHT22;9762;52.490;13.410;2023-07-16T06:43:23;25.50;94.60
19256;DHT22;9762;52.490;13.410;2023-07-16T06:45:50;25.50;94.40
19256;DHT22;9762;52.490;13.410;2023-07-16T06:48:18;25.50;94.20
19256;DHT22;9762;52.490;13.410;2023-07-16T06:50:43;25.50;94.20
19256;DHT22;9762;52.490;13.410;2023-07-16T06:53:09;25.60;94.00
19256;DHT22;9762;52.490;13.410;2023-07-16T06:55:35;25.60;94.40
19256;DHT22;9762;52.490;13.410;2023-07-16T06:58:01;25.60;94.00
19256;DHT22;9762;52.490;13.410;2023-07-16T07:00:27;25.60;93.80
19256;DHT22;9762;52.490;13.410;2023-07-16T07:02:52;25.60;93.50
19256;DHT22;9762;52.490;13.410;2023-07-16T07:05:18;25.80;93.60
19256;DHT22;9762;52.490;13.410;2023-07-16T07:07:44;25.80;93.40
19256;DHT22;9762;52.490;13.410;2023-07-16T07:10:13;25.80;93.10
19256;DHT22;9762;52.490;13.410;2023-07-16T07:12:39;25.90;92.80
19256;DHT22;9762;52.490;13.410;2023-07-16T07:15:06;26.00;92.70
19256;DHT22;9762;52.490;13.410;2023-07-16T07:17:32;26.00;92.50
19256;DHT22;9762;52.490;13.410;2023-07-16T07:19:58;26.10;92.40
19256;DHT22;9762;52.490;13.410;2023-07-16T07:22:23;26.10;92.40
19256;DHT22;9762;52.490;13.410;2023-07-16T07:24:49;26.10;92.20
19256;DHT22;9762;52.490;13.410;2023-07-16T07:27:16;26.00;92.00
19256;DHT22;9762;52.490;13.410;2023-07-16T07:29:41;26.10;92.00
19256;DHT22;9762;52.490;13.410;2023-07-16T07:32:07;26.10;92.00
19256;DHT22;9762;52.490;13.410;2023-07-16T07:34:33;26.20;91.90
19256;DHT22;9762;52.490;13.410;2023-07-16T07:36:58;26.30;91.80
19256;DHT22;9762;52.490;13.410;2023-07-16T07:39:24;26.30;91.60
19256;DHT22;9762;52.490;13.410;2023-07-16T07:41:49;26.40;91.40
19256;DHT22;9762;52.490;13.410;2023-07-16T07:44:15;26.50;91.50
19256;DHT22;9762;52.490;13.410;2023-07-16T07:46:41;26.50;91.60
19256;DHT22;9762;52.490;13.410;2023-07-16T07:49:06;26.60;91.20
19256;DHT22;9762;52.490;13.410;2023-07-16T07:51:32;26.80;90.80
19256;DHT22;9762;52.490;13.410;2023-07-16T07:53:57;26.80;90.70
19256;DHT22;9762;52.490;13.410;2023-07-16T07:56:23;26.90;90.40
19256;DHT22;9762;52.490;13.410;2023-07-16T07:58:48;26.80;89.40
19256;DHT22;9762;52.490;13.410;2023-07-16T08:01:14;26.90;88.50
19256;DHT22;9762;52.490;13.410;2023-07-16T08:03:39;27.00;87.90
19256;DHT22;9762;52.490;13.410;2023-07-16T08:06:05;26.90;87.90
19256;DHT22;9762;52.490;13.410;2023-07-16T08:08:31;26.90;88.00
19256;DHT22;9762;52.490;13.410;2023-07-16T08:10:56;26.90;88.40
19256;DHT22;9762;52.490;13.410;2023-07-16T08:13:22;26.90;88.50
19256;DHT22;9762;52.490;13.410;2023-07-16T08:15:47;26.90;88.80
19256;DHT22;9762;52.490;13.410;2023-07-16T08:18:13;27.00;88.60
19256;DHT22;9762;52.490;13.410;2023-07-16T08:20:39;27.00;86.60
19256;DHT22;9762;52.490;13.410;2023-07-16T08:23:06;27.00;84.10
19256;DHT22;9762;52.490;13.410;2023-07-16T08:25:32;26.90;82.60
19256;DHT22;9762;52.490;13.410;2023-07-16T08:27:57;26.90;82.20
19256;DHT22;9762;52.490;13.410;2023-07-16T08:30:23;27.00;82.20
19256;DHT22;9762;52.490;13.410;2023-07-16T08:32:48;27.00;80.60
19256;DHT22;9762;52.490;13.410;2023-07-16T08:35:15;26.90;80.30
19256;DHT22;9762;52.490;13.410;2023-07-16T08:37:42;26.80;79.90
19256;DHT22;9762;52.490;13.410;2023-07-16T08:40:08;26.90;79.70
19256;DHT22;9762;52.490;13.410;2023-07-16T08:42:37;26.80;80.00
19256;DHT22;9762;52.490;13.410;2023-07-16T08:45:06;26.80;80.10
19256;DHT22;9762;52.490;13.410;2023-07-16T08:47:33;26.90;79.50
19256;DHT22;9762;52.490;13.410;2023-07-16T08:50:01;26.90;79.40
19256;DHT22;9762;52.490;13.410;2023-07-16T08:52:27;26.90;79.00
19256;DHT22;9762;52.490;13.410;2023-07-16T08:54:54;26.90;78.30
19256;DHT22;9762;52.490;13.410;2023-07-16T08:57:20;26.90;77.40
19256;DHT22;9762;52.490;13.410;2023-07-16T08:59:48;27.00;76.90
19256;DHT22;9762;52.490;13.410;2023-07-16T09:02:19;27.00;76.60
19256;DHT22;9762;52.490;13.410;2023-07-16T09:04:48;27.00;75.60
19256;DHT22;9762;52.490;13.410;2023-07-16T09:07:15;27.10;75.60
19256;DHT22;9762;52.490;13.410;2023-07-16T09:09:41;27.20;75.40
19256;DHT22;9762;52.490;13.410;2023-07-16T09:12:10;27.30;75.40
19256;DHT22;9762;52.490;13.410;2023-07-16T09:14:36;27.30;75.70
19256;DHT22;9762;52.490;13.410;2023-07-16T09:17:02;27.40;75.90
19256;DHT22;9762;52.490;13.410;2023-07-16T09:19:28;27.50;75.30
19256;DHT22;9762;52.490;13.410;2023-07-16T09:21:57;27.50;74.60
19256;DHT22;9762;52.490;13.410;2023-07-16T09:24:22;27.60;74.70
19256;DHT22;9762;52.490;13.410;2023-07-16T09:26:52;27.70;74.50
19256;DHT22;9762;52.490;13.410;2023-07-16T09:29:19;27.80;74.70
19256;DHT22;9762;52.490;13.410;2023-07-16T09:32:11;27.80;74.80
19256;DHT22;9762;52.490;13.410;2023-07-16T09:34:37;28.00;74.30
19256;DHT22;9762;52.490;13.410;2023-07-16T09:37:04;28.10;73.60
19256;DHT22;9762;52.490;13.410;2023-07-16T09:39:31;28.10;73.10
19256;DHT22;9762;52.490;13.410;2023-07-16T09:41:57;28.20;72.30
19256;DHT22;9762;52.490;13.410;2023-07-16T09:44:23;28.20;72.00
19256;DHT22;9762;52.490;13.410;2023-07-16T09:46:49;28.20;70.60
19256;DHT22;9762;52.490;13.410;2023-07-16T09:49:15;28.20;70.50
19256;DHT22;9762;52.490;13.410;2023-07-16T09:51:42;28.20;70.30
19256;DHT22;9762;52.490;13.410;2023-07-16T09:54:09;28.30;69.30
19256;DHT22;9762;52.490;13.410;2023-07-16T09:56:47;28.30;69.50
19256;DHT22;9762;52.490;13.410;2023-07-16T09:59:16;28.40;68.20
19256;DHT22;9762;52.490;13.410;2023-07-16T10:01:43;28.50;69.00
19256;DHT22;9762;52.490;13.410;2023-07-16T10:04:13;28.50;67.50
19256;DHT22;9762;52.490;13.410;2023-07-16T10:06:57;28.50;67.90
19256;DHT22;9762;52.490;13.410;2023-07-16T10:09:38;28.60;67.80
19256;DHT22;9762;52.490;13.410;2023-07-16T10:14:51;28.70;66.90
19256;DHT22;9762;52.490;13.410;2023-07-16T10:17:26;28.80;67.30
19256;DHT22;9762;52.490;13.410;2023-07-16T10:20:01;28.80;66.70
19256;DHT22;9762;52.490;13.410;2023-07-16T10:22:39;28.80;66.60
19256;DHT22;9762;52.490;13.410;2023-07-16T10:27:35;28.90;66.10
19256;DHT22;9762;52.490;13.410;2023-07-16T10:30:02;28.90;66.20
19256;DHT22;9762;52.490;13.410;2023-07-16T10:32:30;29.00;66.10
19256;DHT22;9762;52.490;13.410;2023-07-16T10:34:56;29.00;66.10
19256;DHT22;9762;52.490;13.410;2023-07-16T10:37:22;29.00;66.10
19256;DHT22;9762;52.490;13.410;2023-07-16T10:39:49;29.00;65.50
19256;DHT22;9762;52.490;13.410;2023-07-16T10:42:19;29.10;65.30
19256;DHT22;9762;52.490;13.410;2023-07-16T10:44:45;29.20;65.50
19256;DHT22;9762;52.490;13.410;2023-07-16T10:47:20;29.20;65.20
19256;DHT22;9762;52.490;13.410;2023-07-16T10:49:50;29.30;64.60
19256;DHT22;9762;52.490;13.410;2023-07-16T10:52:18;29.30;64.70
19256;DHT22;9762;52.490;13.410;2023-07-16T10:54:43;29.30;64.50
19256;DHT22;9762;52.490;13.410;2023-07-16T10:57:11;29.20;63.90
19256;DHT22;9762;52.490;13.410;2023-07-16T10:59:40;29.20;64.00
19256;DHT22;9762;52.490;13.410;2023-07-16T11:02:12;29.20;64.10
19256;DHT22;9762;52.490;13.410;2023-07-16T11:04:38;29.10;64.20
19256;DHT22;9762;52.490;13.410;2023-07-16T11:07:08;29.00;64.00
19256;DHT22;9762;52.490;13.410;2023-07-16T11:09:39;29.00;64.10
19256;DHT22;9762;52.490;13.410;2023-07-16T11:12:06;29.00;64.50
19256;DHT22;9762;52.490;13.410;2023-07-16T11:14:33;29.00;64.90
19256;DHT22;9762;52.490;13.410;2023-07-16T11:17:04;29.00;65.40
19256;DHT22;9762;52.490;13.410;2023-07-16T11:19:31;29.10;65.80
19256;DHT22;9762;52.490;13.410;2023-07-16T11:21:57;29.10;65.40
19256;DHT22;9762;52.490;13.410;2023-07-16T11:24:23;29.20;65.30
19256;DHT22;9762;52.490;13.410;2023-07-16T11:26:56;29.30;64.90
19256;DHT22;9762;52.490;13.410;2023-07-16T11:29:25;29.40;64.70
19256;DHT22;9762;52.490;13.410;2023-07-16T11:31:52;29.50;64.60
19256;DHT22;9762;52.490;13.410;2023-07-16T11:34:20;29.60;64.80
19256;DHT22;9762;52.490;13.410;2023-07-16T11:36:47;29.60;64.60
19256;DHT22;9762;52.490;13.410;2023-07-16T11:39:13;29.70;64.70
19256;DHT22;9762;52.490;13.410;2023-07-16T11:41:38;29.80;64.30
19256;DHT22;9762;52.490;13.410;2023-07-16T11:44:07;29.90;64.20
19256;DHT22;9762;52.490;13.410;2023-07-16T11:46:33;30.00;63.70
19256;DHT22;9762;52.490;13.410;2023-07-16T11:49:00;30.10;63.60
19256;DHT22;9762;52.490;13.410;2023-07-16T11:51:26;30.20;62.30
19256;DHT22;9762;52.490;13.410;2023-07-16T11:53:51;30.20;60.60
19256;DHT22;9762;52.490;13.410;2023-07-16T11:56:17;30.30;58.60
19256;DHT22;9762;52.490;13.410;2023-07-16T11:58:43;30.40;57.30
19256;DHT22;9762;52.490;13.410;2023-07-16T12:01:09;30.40;56.60
19256;DHT22;9762;52.490;13.410;2023-07-16T12:03:35;30.50;56.30
19256;DHT22;9762;52.490;13.410;2023-07-16T12:06:00;30.50;55.60
19256;DHT22;9762;52.490;13.410;2023-07-16T12:08:26;30.60;55.00
19256;DHT22;9762;52.490;13.410;2023-07-16T12:10:51;30.60;53.90
19256;DHT22;9762;52.490;13.410;2023-07-16T12:13:17;30.60;53.30
19256;DHT22;9762;52.490;13.410;2023-07-16T12:15:43;30.60;52.10
19256;DHT22;9762;52.490;13.410;2023-07-16T12:18:08;30.60;51.50
19256;DHT22;9762;52.490;13.410;2023-07-16T12:20:35;30.70;50.90
19256;DHT22;9762;52.490;13.410;2023-07-16T12:23:02;30.70;51.40
19256;DHT22;9762;52.490;13.410;2023-07-16T12:25:28;30.80;51.10
19256;DHT22;9762;52.490;13.410;2023-07-16T12:27:54;30.90;50.40
19256;DHT22;9762;52.490;13.410;2023-07-16T12:30:20;31.00;50.90
19256;DHT22;9762;52.490;13.410;2023-07-16T12:32:45;31.10;50.00
19256;DHT22;9762;52.490;13.410;2023-07-16T12:35:11;31.30;51.00
19256;DHT22;9762;52.490;13.410;2023-07-16T12:37:37;31.40;51.30
19256;DHT22;9762;52.490;13.410;2023-07-16T12:40:02;31.50;50.60
19256;DHT22;9762;52.490;13.410;2023-07-16T12:42:28;31.70;50.40
19256;DHT22;9762;52.490;13.410;2023-07-16T12:44:54;31.80;50.10
19256;DHT22;9762;52.490;13.410;2023-07-16T12:47:20;32.00;49.40
19256;DHT22;9762;52.490;13.410;2023-07-16T12:49:45;32.10;48.30
19256;DHT22;9762;52.490;13.410;2023-07-16T12:52:11;32.30;48.00
19256;DHT22;9762;52.490;13.410;2023-07-16T12:54:37;32.40;47.80
19256;DHT22;9762;52.490;13.410;2023-07-16T12:57:02;32.40;46.90
19256;DHT22;9762;52.490;13.410;2023-07-16T12:59:28;32.50;46.80
19256;DHT22;9762;52.490;13.410;2023-07-16T13:01:54;32.60;46.70
19256;DHT22;9762;52.490;13.410;2023-07-16T13:04:19;32.70;46.20
19256;DHT22;9762;52.490;13.410;2023-07-16T13:06:45;32.80;46.40
19256;DHT22;9762;52.490;13.410;2023-07-16T13:09:13;32.80;45.60
19256;DHT22;9762;52.490;13.410;2023-07-16T13:11:40;32.80;45.30
19256;DHT22;9762;52.490;13.410;2023-07-16T13:14:06;32.80;45.50
19256;DHT22;9762;52.490;13.410;2023-07-16T13:16:31;32.80;45.40
19256;DHT22;9762;52.490;13.410;2023-07-16T13:18:57;32.80;45.60
19256;DHT22;9762;52.490;13.410;2023-07-16T13:21:23;32.70;46.10
19256;DHT22;9762;52.490;13.410;2023-07-16T13:23:48;32.70;46.60
19256;DHT22;9762;52.490;13.410;2023-07-16T13:26:14;32.60;46.20
19256;DHT22;9762;52.490;13.410;2023-07-16T13:28:39;32.50;46.90
19256;DHT22;9762;52.490;13.410;2023-07-16T13:31:06;32.50;46.60
19256;DHT22;9762;52.490;13.410;2023-07-16T13:33:31;32.70;46.20
19256;DHT22;9762;52.490;13.410;2023-07-16T13:35:57;32.70;46.50
19256;DHT22;9762;52.490;13.410;2023-07-16T13:38:25;32.80;45.60
19256;DHT22;9762;52.490;13.410;2023-07-16T13:40:51;32.80;45.40
19256;DHT22;9762;52.490;13.410;2023-07-16T13:43:16;32.90;45.80
19256;DHT22;9762;52.490;13.410;2023-07-16T13:45:42;33.00;45.70
19256;DHT22;9762;52.490;13.410;2023-07-16T13:48:07;33.10;46.20
19256;DHT22;9762;52.490;13.410;2023-07-16T13:50:33;33.30;45.00
19256;DHT22;9762;52.490;13.410;2023-07-16T13:52:59;33.50;45.00
19256;DHT22;9762;52.490;13.410;2023-07-16T13:57:53;33.80;43.70
19256;DHT22;9762;52.490;13.410;2023-07-16T14:00:18;34.10;44.40
19256;DHT22;9762;52.490;13.410;2023-07-16T14:02:45;34.30;42.70
19256;DHT22;9762;52.490;13.410;2023-07-16T14:05:11;34.40;42.70
19256;DHT22;9762;52.490;13.410;2023-07-16T14:07:36;34.50;42.50
19256;DHT22;9762;52.490;13.410;2023-07-16T14:10:02;34.60;42.20
19256;DHT22;9762;52.490;13.410;2023-07-16T14:12:28;34.80;42.60
19256;DHT22;9762;52.490;13.410;2023-07-16T14:14:53;35.00;41.50
19256;DHT22;9762;52.490;13.410;2023-07-16T14:17:20;35.30;41.60
19256;DHT22;9762;52.490;13.410;2023-07-16T14:19:45;35.40;41.20
19256;DHT22;9762;52.490;13.410;2023-07-16T14:22:11;35.60;40.30
19256;DHT22;9762;52.490;13.410;2023-07-16T14:24:38;35.70;40.10
19256;DHT22;9762;52.490;13.410;2023-07-16T14:27:06;35.80;39.20
19256;DHT22;9762;52.490;13.410;2023-07-16T14:29:32;35.80;39.10
19256;DHT22;9762;52.490;13.410;2023-07-16T14:31:58;35.90;39.50
19256;DHT22;9762;52.490;13.410;2023-07-16T14:34:25;35.90;39.40
19256;DHT22;9762;52.490;13.410;2023-07-16T14:36:52;35.80;39.10
19256;DHT22;9762;52.490;13.410;2023-07-16T14:39:17;35.70;39.30
19256;DHT22;9762;52.490;13.410;2023-07-16T14:41:43;35.70;39.40
19256;DHT22;9762;52.490;13.410;2023-07-16T14:44:09;35.80;39.50
19256;DHT22;9762;52.490;13.410;2023-07-16T14:46:35;35.80;38.20
19256;DHT22;9762;52.490;13.410;2023-07-16T14:49:01;35.80;38.70
19256;DHT22;9762;52.490;13.410;2023-07-16T14:51:27;35.70;38.70
19256;DHT22;9762;52.490;13.410;2023-07-16T14:53:53;35.70;38.90
19256;DHT22;9762;52.490;13.410;2023-07-16T14:56:18;35.70;38.80
19256;DHT22;9762;52.490;13.410;2023-07-16T14:58:44;35.80;39.50
19256;DHT22;9762;52.490;13.410;2023-07-16T15:01:10;35.80;39.00
19256;DHT22;9762;52.490;13.410;2023-07-16T15:03:37;36.00;39.70
19256;DHT22;9762;52.490;13.410;2023-07-16T15:06:06;36.10;38.80
19256;DHT22;9762;52.490;13.410;2023-07-16T15:08:31;36.30;39.00
19256;DHT22;9762;52.490;13.410;2023-07-16T15:11:01;36.30;37.40
19256;DHT22;9762;52.490;13.410;2023-07-16T15:13:26;36.30;38.00
19256;DHT22;9762;52.490;13.410;2023-07-16T15:15:54;36.40;37.70
19256;DHT22;9762;52.490;13.410;2023-07-16T15:18:22;36.50;38.10
19256;DHT22;9762;52.490;13.410;2023-07-16T15:20:48;36.50;37.90
19256;DHT22;9762;52.490;13.410;2023-07-16T15:23:13;36.50;38.30
19256;DHT22;9762;52.490;13.410;2023-07-16T15:25:42;36.60;38.20
19256;DHT22;9762;52.490;13.410;2023-07-16T15:28:09;36.40;36.90
19256;DHT22;9762;52.490;13.410;2023-07-16T15:30:36;36.30;38.10
19256;DHT22;9762;52.490;13.410;2023-07-16T15:33:01;36.30;38.20
19256;DHT22;9762;52.490;13.410;2023-07-16T15:35:27;36.30;37.50
19256;DHT22;9762;52.490;13.410;2023-07-16T15:37:52;36.30;37.30